sensor_id;sensor_type;location;lat;lon;timestamp;pressure;altitude;pressure_sealevel;temperature;humidity
43691;BME280;29293;52.190;21.226;2023-03-13T00:01:17;99893.77;;;-1.07;100.00
43691;BME280;29293;52.190;21.226;2023-03-13T00:16:26;99879.31;;;-0.97;100.00
43691;BME280;29293;52.190;21.226;2023-03-13T00:31:33;99868.02;;;-0.88;100.00
43691;BME280;29293;52.190;21.226;2023-03-13T00:46:40;99866.52;;;-0.78;100.00
43691;BME280;29293;52.190;21.226;2023-03-13T01:01:47;99867.41;;;-0.71;100.00
43691;BME280;29293;52.190;21.226;2023-03-13T01:16:54;99863.04;;;-0.67;100.00
43691;BME280;29293;52.190;21.226;2023-03-13T01:32:01;99837.70;;;-0.69;100.00
43691;BME280;29293;52.190;21.226;2023-03-13T01:47:08;99817.27;;;-0.68;100.00
43691;BME280;29293;52.190;21.226;2023-03-13T02:02:16;99798.59;;;-0.63;100.00
43691;BME280;29293;52.190;21.226;2023-03-13T02:17:24;99785.33;;;-0.59;100.00
43691;BME280;29293;52.190;21.226;2023-03-13T02:32:31;99781.43;;;-0.46;100.00
43691;BME280;29293;52.190;21.226;2023-03-13T02:47:39;99769.27;;;-0.25;100.00
43691;BME280;29293;52.190;21.226;2023-03-13T03:02:46;99769.22;;;-0.09;100.00
43691;BME280;29293;52.190;21.226;2023-03-13T03:17:53;99770.66;;;0.00;100.00
43691;BME280;29293;52.190;21.226;2023-03-13T03:33:02;99759.36;;;0.10;100.00
43691;BME280;29293;52.190;21.226;2023-03-13T03:48:10;99756.35;;;0.16;100.00
43691;BME280;29293;52.190;21.226;2023-03-13T04:03:18;99761.35;;;0.25;100.00
43691;BME280;29293;52.190;21.226;2023-03-13T04:18:25;99732.66;;;0.36;100.00
43691;BME280;29293;52.190;21.226;2023-03-13T04:33:32;99716.80;;;0.47;100.00
43691;BME280;29293;52.190;21.226;2023-03-13T04:48:44;99710.15;;;0.59;100.00
43691;BME280;29293;52.190;21.226;2023-03-13T05:03:54;99695.58;;;0.60;100.00
43691;BME280;29293;52.190;21.226;2023-03-13T05:19:01;99685.05;;;0.65;100.00
43691;BME280;29293;52.190;21.226;2023-03-13T05:34:11;99676.56;;;0.72;100.00
43691;BME280;29293;52.190;21.226;2023-03-13T05:49:18;99672.60;;;0.86;100.00
43691;BME280;29293;52.190;21.226;2023-03-13T06:04:25;99681.13;;;1.06;100.00
43691;BME280;29293;52.190;21.226;2023-03-13T06:19:32;99672.20;;;1.27;100.00
43691;BME280;29293;52.190;21.226;2023-03-13T06:34:43;99669.23;;;1.39;100.00
43691;BME280;29293;52.190;21.226;2023-03-13T06:49:50;99657.33;;;1.60;100.00
43691;BME280;29293;52.190;21.226;2023-03-13T07:04:57;99655.54;;;1.72;100.00
43691;BME280;29293;52.190;21.226;2023-03-13T07:20:05;99644.95;;;1.95;100.00
43691;BME280;29293;52.190;21.226;2023-03-13T07:35:15;99635.85;;;2.18;100.00
43691;BME280;29293;52.190;21.226;2023-03-13T07:50:22;99627.02;;;2.43;100.00
43691;BME280;29293;52.190;21.226;2023-03-13T08:05:31;99613.27;;;2.75;100.00
43691;BME280;29293;52.190;21.226;2023-03-13T08:20:38;99600.30;;;3.32;100.00
43691;BME280;29293;52.190;21.226;2023-03-13T08:35:45;99595.48;;;3.79;100.00
43691;BME280;29293;52.190;21.226;2023-03-13T08:51:01;99591.04;;;4.01;100.00
43691;BME280;29293;52.190;21.226;2023-03-13T09:06:10;99566.80;;;4.28;100.00
43691;BME280;29293;52.190;21.226;2023-03-13T09:21:19;99530.42;;;5.04;100.00
43691;BME280;29293;52.190;21.226;2023-03-13T09:36:27;99498.45;;;6.26;100.00
43691;BME280;29293;52.190;21.226;2023-03-13T09:51:37;99475.70;;;7.32;100.00
43691;BME280;29293;52.190;21.226;2023-03-13T10:06:46;99455.46;;;8.21;100.00
43691;BME280;29293;52.190;21.226;2023-03-13T10:21:56;99430.06;;;8.84;100.00
43691;BME280;29293;52.190;21.226;2023-03-13T10:37:05;99415.48;;;9.27;100.00
43691;BME280;29293;52.190;21.226;2023-03-13T10:52:40;99407.11;;;9.53;100.00
43691;BME280;29293;52.190;21.226;2023-03-13T11:07:51;99371.39;;;9.66;100.00
43691;BME280;29293;52.190;21.226;2023-03-13T11:23:09;99347.93;;;10.07;100.00
43691;BME280;29293;52.190;21.226;2023-03-13T11:38:28;99326.98;;;10.21;100.00
43691;BME280;29293;52.190;21.226;2023-03-13T12:09:36;99247.27;;;11.33;100.00
43691;BME280;29293;52.190;21.226;2023-03-13T12:40:18;99231.20;;;11.00;100.00
43691;BME280;29293;52.190;21.226;2023-03-13T12:55:48;99212.92;;;10.86;100.00
43691;BME280;29293;52.190;21.226;2023-03-13T13:26:46;99172.20;;;10.11;100.00
43691;BME280;29293;52.190;21.226;2023-03-13T13:41:54;99172.11;;;9.90;100.00
43691;BME280;29293;52.190;21.226;2023-03-13T13:57:05;99159.69;;;9.58;100.00
43691;BME280;29293;52.190;21.226;2023-03-13T14:12:30;99143.05;;;9.29;100.00
43691;BME280;29293;52.190;21.226;2023-03-13T14:27:45;99119.83;;;8.95;100.00
43691;BME280;29293;52.190;21.226;2023-03-13T14:42:55;99094.67;;;8.73;100.00
43691;BME280;29293;52.190;21.226;2023-03-13T14:58:25;99077.97;;;8.61;100.00
43691;BME280;29293;52.190;21.226;2023-03-13T15:13:47;99033.98;;;8.54;100.00
43691;BME280;29293;52.190;21.226;2023-03-13T15:29:00;99022.78;;;8.44;100.00
43691;BME280;29293;52.190;21.226;2023-03-13T15:44:07;99012.35;;;8.28;100.00
43691;BME280;29293;52.190;21.226;2023-03-13T15:59:15;99006.96;;;8.16;100.00
43691;BME280;29293;52.190;21.226;2023-03-13T16:14:22;99010.87;;;8.12;100.00
43691;BME280;29293;52.190;21.226;2023-03-13T16:29:29;99008.61;;;8.05;100.00
43691;BME280;29293;52.190;21.226;2023-03-13T16:44:36;99008.67;;;8.03;100.00
43691;BME280;29293;52.190;21.226;2023-03-13T16:59:44;99016.13;;;8.00;100.00
43691;BME280;29293;52.190;21.226;2023-03-13T17:14:51;99012.98;;;7.98;100.00
43691;BME280;29293;52.190;21.226;2023-03-13T17:29:58;99018.11;;;8.04;100.00
43691;BME280;29293;52.190;21.226;2023-03-13T17:45:07;99023.10;;;8.05;100.00
43691;BME280;29293;52.190;21.226;2023-03-13T18:00:16;99024.74;;;8.10;100.00
43691;BME280;29293;52.190;21.226;2023-03-13T18:15:25;99013.20;;;8.16;100.00
43691;BME280;29293;52.190;21.226;2023-03-13T18:30:33;98999.63;;;8.29;100.00
43691;BME280;29293;52.190;21.226;2023-03-13T18:45:40;98991.06;;;8.42;100.00
43691;BME280;29293;52.190;21.226;2023-03-13T19:00:47;98988.65;;;8.50;100.00
43691;BME280;29293;52.190;21.226;2023-03-13T19:15:54;98982.33;;;8.52;100.00
43691;BME280;29293;52.190;21.226;2023-03-13T19:31:06;98967.52;;;8.57;100.00
43691;BME280;29293;52.190;21.226;2023-03-13T19:46:22;98958.80;;;8.60;100.00
43691;BME280;29293;52.190;21.226;2023-03-13T20:01:31;98978.21;;;8.58;100.00
43691;BME280;29293;52.190;21.226;2023-03-13T20:16:38;98988.98;;;8.65;100.00
43691;BME280;29293;52.190;21.226;2023-03-13T20:31:45;98972.70;;;8.69;100.00
43691;BME280;29293;52.190;21.226;2023-03-13T20:46:52;98974.58;;;8.76;100.00
43691;BME280;29293;52.190;21.226;2023-03-13T21:02:03;98954.20;;;8.84;100.00
43691;BME280;29293;52.190;21.226;2023-03-13T21:17:11;98939.68;;;8.89;100.00
43691;BME280;29293;52.190;21.226;2023-03-13T21:32:22;98923.59;;;8.91;100.00
43691;BME280;29293;52.190;21.226;2023-03-13T21:47:52;98917.58;;;8.87;100.00
43691;BME280;29293;52.190;21.226;2023-03-13T22:03:00;98908.89;;;8.88;100.00
43691;BME280;29293;52.190;21.226;2023-03-13T22:18:07;98885.88;;;8.91;100.00
43691;BME280;29293;52.190;21.226;2023-03-13T22:33:14;98867.15;;;8.92;100.00
43691;BME280;29293;52.190;21.226;2023-03-13T23:06:27;98849.01;;;9.28;100.00
43691;BME280;29293;52.190;21.226;2023-03-13T23:21:36;98829.40;;;9.10;100.00
43691;BME280;29293;52.190;21.226;2023-03-13T23:36:42;98833.63;;;8.85;100.00
43691;BME280;29293;52.190;21.226;2023-03-13T23:51:49;98836.77;;;8.47;100.00
